createdAt,value
2023-02-19T00:01:47.985Z,3.13
2023-02-19T00:04:22.107Z,2.55
2023-02-19T00:06:50.185Z,2.25
2023-02-19T00:09:19.663Z,2.53
2023-02-19T00:11:48.018Z,2.13
2023-02-19T00:14:18.901Z,1.88
2023-02-19T00:16:46.745Z,2.03
2023-02-19T00:19:17.315Z,2.35
2023-02-19T00:21:44.940Z,1.95
2023-02-19T00:24:13.704Z,1.73
2023-02-19T00:26:42.827Z,3.03
2023-02-19T00:29:15.553Z,2.50
2023-02-19T00:31:45.375Z,2.80
2023-02-19T00:34:14.192Z,2.58
2023-02-19T00:36:42.815Z,3.53
2023-02-19T00:39:15.727Z,3.55
2023-02-19T00:41:44.207Z,3.58
2023-02-19T00:44:13.263Z,2.97
2023-02-19T00:46:43.745Z,2.65
2023-02-19T00:49:21.518Z,3.05
2023-02-19T00:51:53.060Z,3.45
2023-02-19T00:54:22.495Z,3.08
2023-02-19T00:56:50.924Z,3.50
2023-02-19T00:59:18.490Z,2.67
2023-02-19T01:01:46.037Z,3.25
2023-02-19T01:04:14.974Z,2.72
2023-02-19T01:06:42.588Z,3.15
2023-02-19T01:09:10.149Z,3.30
2023-02-19T01:11:38.997Z,3.05
2023-02-19T01:14:06.576Z,2.50
2023-02-19T01:16:34.756Z,2.20
2023-02-19T01:19:02.631Z,2.70
2023-02-19T01:21:31.137Z,2.00
2023-02-19T01:23:59.133Z,2.20
2023-02-19T01:26:30.707Z,2.30
2023-02-19T01:28:59.078Z,1.60
2023-02-19T01:31:26.970Z,2.03
2023-02-19T01:33:58.442Z,1.70
2023-02-19T01:36:26.820Z,1.90
2023-02-19T01:38:54.623Z,2.10
2023-02-19T01:41:25.047Z,1.70
2023-02-19T01:44:13.751Z,1.50
2023-02-19T01:46:48.609Z,2.10
2023-02-19T01:49:40.557Z,1.92
2023-02-19T01:52:21.390Z,2.20
2023-02-19T01:54:49.782Z,2.10
2023-02-19T01:57:21.658Z,1.70
2023-02-19T01:59:54.962Z,1.80
2023-02-19T02:02:28.524Z,1.77
2023-02-19T02:05:00.219Z,1.83
2023-02-19T02:07:46.539Z,1.67
2023-02-19T02:12:53.007Z,1.95
2023-02-19T02:15:22.379Z,1.83
2023-02-19T02:17:56.714Z,2.08
2023-02-19T02:20:36.744Z,2.70
2023-02-19T02:23:29.721Z,2.83
2023-02-19T02:26:41.176Z,1.92
2023-02-19T02:29:33.983Z,3.30
2023-02-19T02:32:13.655Z,2.20
2023-02-19T02:35:07.532Z,2.67
2023-02-19T02:37:39.512Z,2.00
2023-02-19T02:40:09.236Z,2.85
2023-02-19T02:42:40.187Z,2.63
2023-02-19T02:45:36.510Z,2.13
2023-02-19T02:48:30.573Z,1.98
2023-02-19T02:51:07.290Z,2.00
2023-02-19T02:54:24.686Z,2.20
2023-02-19T02:56:53.949Z,1.75
2023-02-19T02:59:25.928Z,2.30
2023-02-19T03:02:14.372Z,1.67
2023-02-19T03:05:06.678Z,1.60
2023-02-19T03:07:40.088Z,1.75
2023-02-19T03:10:12.011Z,2.10
2023-02-19T03:12:59.467Z,1.85
2023-02-19T03:15:59.232Z,1.98
2023-02-19T03:19:07.471Z,1.85
2023-02-19T03:21:38.397Z,1.50
2023-02-19T03:24:29.868Z,1.55
2023-02-19T03:27:02.005Z,1.50
2023-02-19T03:29:37.649Z,1.40
2023-02-19T03:32:23.938Z,1.70
2023-02-19T03:34:57.544Z,1.80
2023-02-19T03:37:38.459Z,1.27
2023-02-19T03:40:07.473Z,1.45
2023-02-19T03:43:16.095Z,1.38
2023-02-19T03:45:57.014Z,1.50
2023-02-19T03:48:45.212Z,1.30
2023-02-19T03:51:34.278Z,0.95
2023-02-19T03:54:38.437Z,1.60
2023-02-19T03:57:06.666Z,1.27
2023-02-19T03:59:48.698Z,1.15
2023-02-19T04:02:58.429Z,1.10
2023-02-19T04:05:35.915Z,1.40
2023-02-19T04:08:13.527Z,1.10
2023-02-19T04:10:47.047Z,1.10
2023-02-19T04:13:43.500Z,1.20
2023-02-19T04:16:19.207Z,1.00
2023-02-19T04:21:16.917Z,0.80
2023-02-19T04:23:45.956Z,1.00
2023-02-19T04:26:15.329Z,0.73
2023-02-19T04:28:44.259Z,0.90
2023-02-19T04:31:12.430Z,0.80
2023-02-19T04:33:40.169Z,0.80
2023-02-19T04:36:08.209Z,0.75
2023-02-19T04:38:35.720Z,0.80
2023-02-19T04:41:03.295Z,1.00
2023-02-19T04:43:30.737Z,0.80
2023-02-19T04:46:02.056Z,0.93
2023-02-19T04:48:29.688Z,0.85
2023-02-19T04:50:57.533Z,0.80
2023-02-19T04:53:25.131Z,0.82
2023-02-19T04:55:53.479Z,0.85
2023-02-19T04:58:21.496Z,0.70
2023-02-19T05:00:52.936Z,0.63
2023-02-19T05:03:20.432Z,0.50
2023-02-19T05:05:47.939Z,0.40
2023-02-19T05:08:15.387Z,0.68
2023-02-19T05:10:42.905Z,0.70
2023-02-19T05:13:10.370Z,0.60
2023-02-19T05:15:39.122Z,0.50
2023-02-19T05:18:06.658Z,0.70
2023-02-19T05:20:34.165Z,0.50
2023-02-19T05:23:01.571Z,0.40
2023-02-19T05:25:29.075Z,0.47
2023-02-19T05:28:16.505Z,0.50
2023-02-19T05:30:51.805Z,0.30
2023-02-19T05:33:20.925Z,0.40
2023-02-19T05:35:50.362Z,0.40
2023-02-19T05:38:18.724Z,0.38
2023-02-19T05:40:46.737Z,0.40
2023-02-19T05:43:14.450Z,0.65
2023-02-19T05:45:43.142Z,0.35
2023-02-19T05:48:12.438Z,0.60
2023-02-19T05:50:40.086Z,0.45
2023-02-19T05:53:13.405Z,0.50
2023-02-19T05:55:40.954Z,0.40
2023-02-19T05:58:08.375Z,0.50
2023-02-19T06:00:35.961Z,0.50
2023-02-19T06:03:03.490Z,0.40
2023-02-19T06:05:30.945Z,0.30
2023-02-19T06:07:58.379Z,0.40
2023-02-19T06:10:25.837Z,0.30
2023-02-19T06:12:54.301Z,0.32
2023-02-19T06:15:22.139Z,0.40
2023-02-19T06:17:49.605Z,0.50
2023-02-19T06:20:17.291Z,0.30
2023-02-19T06:22:44.774Z,0.30
2023-02-19T06:25:12.839Z,0.30
2023-02-19T06:27:40.255Z,0.45
2023-02-19T06:30:08.606Z,0.47
2023-02-19T06:32:36.191Z,0.30
2023-02-19T06:35:03.959Z,0.38
2023-02-19T06:37:31.531Z,0.60
2023-02-19T06:39:59.022Z,0.40
2023-02-19T06:42:26.473Z,0.30
2023-02-19T06:44:53.993Z,0.45
2023-02-19T06:47:23.174Z,0.45
2023-02-19T06:49:51.941Z,0.38
2023-02-19T06:52:20.478Z,0.20
2023-02-19T06:54:47.964Z,0.40
2023-02-19T06:57:15.486Z,0.60
2023-02-19T06:59:42.942Z,0.22
2023-02-19T07:02:12.285Z,0.45
2023-02-19T07:04:39.875Z,0.40
2023-02-19T07:07:10.407Z,0.57
2023-02-19T07:09:37.927Z,0.50
2023-02-19T07:12:05.862Z,0.60
2023-02-19T07:14:33.351Z,0.60
2023-02-19T07:17:00.980Z,0.32
2023-02-19T07:19:28.531Z,0.40
2023-02-19T07:21:55.962Z,0.45
2023-02-19T07:24:23.395Z,0.50
2023-02-19T07:26:50.914Z,0.50
2023-02-19T07:29:19.579Z,0.47
2023-02-19T07:31:47.035Z,0.55
2023-02-19T07:34:14.527Z,0.52
2023-02-19T07:36:42.033Z,0.60
2023-02-19T07:39:13.065Z,0.50
2023-02-19T07:41:40.578Z,0.57
2023-02-19T07:44:08.181Z,0.57
2023-02-19T07:46:35.756Z,0.50
2023-02-19T07:49:03.304Z,0.60
2023-02-19T07:51:30.906Z,0.75
2023-02-19T07:53:59.602Z,0.70
2023-02-19T07:56:31.426Z,1.00
2023-02-19T07:59:00.613Z,1.00
2023-02-19T08:01:46.527Z,0.70
2023-02-19T08:04:15.189Z,0.80
2023-02-19T08:06:43.164Z,0.90
2023-02-19T08:09:11.469Z,0.70
2023-02-19T08:11:57.365Z,0.52
2023-02-19T08:14:26.507Z,0.70
2023-02-19T08:16:54.947Z,0.60
2023-02-19T08:19:22.700Z,0.60
2023-02-19T08:21:51.366Z,0.52
2023-02-19T08:24:18.925Z,0.50
2023-02-19T08:26:46.452Z,0.50
2023-02-19T08:29:14.070Z,0.63
2023-02-19T08:31:41.703Z,0.60
2023-02-19T08:34:10.854Z,0.60
2023-02-19T08:36:38.744Z,0.55
2023-02-19T08:39:06.654Z,0.43
2023-02-19T08:41:34.078Z,0.63
2023-02-19T08:44:01.634Z,0.50
2023-02-19T08:46:29.133Z,0.60
2023-02-19T08:48:56.733Z,0.45
2023-02-19T08:51:24.215Z,0.50
2023-02-19T08:53:51.828Z,0.47
2023-02-19T08:56:19.384Z,0.57
2023-02-19T08:58:47.137Z,0.50
2023-02-19T09:01:18.677Z,0.77
2023-02-19T09:03:46.615Z,0.73
2023-02-19T09:06:17.426Z,0.50
2023-02-19T09:08:45.129Z,0.70
2023-02-19T09:11:13.332Z,0.90
2023-02-19T09:13:41.198Z,0.75
2023-02-19T09:16:11.261Z,0.60
2023-02-19T09:18:38.819Z,0.55
2023-02-19T09:21:07.059Z,0.65
2023-02-19T09:23:37.603Z,0.70
2023-02-19T09:26:09.916Z,0.80
2023-02-19T09:28:39.763Z,0.50
2023-02-19T09:31:11.169Z,0.60
2023-02-19T09:33:42.857Z,0.50
2023-02-19T09:36:11.043Z,0.90
2023-02-19T09:38:39.896Z,0.68
2023-02-19T09:41:21.244Z,0.88
2023-02-19T09:43:48.866Z,0.93
2023-02-19T09:46:25.112Z,0.88
2023-02-19T09:48:55.778Z,0.90
2023-02-19T09:51:25.332Z,0.75
2023-02-19T09:53:54.616Z,0.85
2023-02-19T09:56:22.498Z,1.02
2023-02-19T09:58:56.818Z,0.90
2023-02-19T10:01:28.562Z,0.60
2023-02-19T10:03:56.115Z,0.70
2023-02-19T10:06:27.487Z,0.90
2023-02-19T10:09:02.803Z,1.05
2023-02-19T10:11:30.427Z,0.82
2023-02-19T10:14:09.361Z,0.75
2023-02-19T10:16:42.241Z,1.00
2023-02-19T10:19:18.602Z,0.80
2023-02-19T10:21:46.571Z,1.08
2023-02-19T10:24:22.501Z,1.05
2023-02-19T10:29:17.853Z,1.10
2023-02-19T10:31:45.816Z,1.00
2023-02-19T10:34:22.318Z,1.27
2023-02-19T10:36:52.607Z,0.90
2023-02-19T10:39:22.837Z,0.90
2023-02-19T10:41:54.497Z,0.77
2023-02-19T10:44:27.506Z,0.90
2023-02-19T10:46:59.337Z,1.00
2023-02-19T10:49:30.207Z,0.90
2023-02-19T10:52:02.551Z,0.80
2023-02-19T10:54:32.967Z,0.90
2023-02-19T10:57:30.557Z,0.95
2023-02-19T11:00:04.133Z,0.80
2023-02-19T11:02:32.127Z,0.80
2023-02-19T11:05:06.880Z,0.82
2023-02-19T11:07:38.300Z,1.00
2023-02-19T11:10:07.243Z,0.90
2023-02-19T11:12:36.573Z,0.82
2023-02-19T11:15:24.445Z,1.25
2023-02-19T11:17:57.509Z,0.93
2023-02-19T11:20:26.193Z,1.08
2023-02-19T11:22:59.683Z,1.00
2023-02-19T11:25:27.890Z,1.17
2023-02-19T11:28:04.959Z,1.00
2023-02-19T11:30:36.826Z,1.13
2023-02-19T11:33:16.591Z,1.02
2023-02-19T11:36:37.362Z,1.10
2023-02-19T11:39:16.894Z,0.95
2023-02-19T11:41:50.698Z,1.13
2023-02-19T11:44:35.165Z,1.10
2023-02-19T11:47:36.242Z,0.90
2023-02-19T11:50:15.089Z,0.90
2023-02-19T11:53:13.006Z,0.98
2023-02-19T11:56:14.250Z,0.77
2023-02-19T11:58:55.663Z,0.70
2023-02-19T12:01:25.688Z,0.80
2023-02-19T12:04:05.038Z,0.98
2023-02-19T12:06:39.607Z,1.08
2023-02-19T12:09:37.984Z,1.23
2023-02-19T12:12:29.954Z,0.80
2023-02-19T12:14:57.419Z,0.88
2023-02-19T12:17:27.909Z,1.13
2023-02-19T12:20:24.447Z,1.30
2023-02-19T12:23:16.272Z,1.40
2023-02-19T12:26:20.951Z,1.20
2023-02-19T12:29:07.253Z,1.00
2023-02-19T12:32:04.130Z,0.98
2023-02-19T12:38:06.953Z,1.00
2023-02-19T12:41:02.157Z,1.08
2023-02-19T12:43:31.876Z,0.50
2023-02-19T12:46:10.569Z,0.98
2023-02-19T12:48:53.428Z,0.68
2023-02-19T12:51:33.151Z,0.80
2023-02-19T12:54:06.748Z,1.10
2023-02-19T12:56:40.471Z,1.10
2023-02-19T12:59:20.652Z,1.48
2023-02-19T13:02:12.092Z,1.23
2023-02-19T13:04:48.405Z,1.13
2023-02-19T13:07:25.583Z,1.17
2023-02-19T13:10:19.307Z,0.90
2023-02-19T13:12:49.810Z,0.70
2023-02-19T13:15:33.628Z,0.90
2023-02-19T13:18:05.183Z,0.88
2023-02-19T13:20:43.288Z,0.65
2023-02-19T13:23:37.677Z,0.80
2023-02-19T13:26:46.610Z,0.85
2023-02-19T13:29:30.553Z,0.95
2023-02-19T13:32:16.932Z,1.02
2023-02-19T13:37:24.968Z,1.40
2023-02-19T13:40:04.563Z,1.00
2023-02-19T13:42:36.678Z,1.30
2023-02-19T13:45:06.432Z,1.10
2023-02-19T13:48:00.084Z,1.10
2023-02-19T13:50:33.673Z,1.02
2023-02-19T13:53:22.465Z,0.90
2023-02-19T13:55:52.689Z,1.15
2023-02-19T13:58:56.951Z,1.50
2023-02-19T14:01:53.559Z,1.17
2023-02-19T14:04:40.213Z,1.23
2023-02-19T14:07:08.889Z,1.45
2023-02-19T14:09:40.085Z,1.30
2023-02-19T14:12:10.724Z,1.80
2023-02-19T14:15:18.393Z,1.67
2023-02-19T14:17:46.339Z,2.08
2023-02-19T14:20:16.584Z,1.77
2023-02-19T14:22:47.188Z,1.40
2023-02-19T14:25:26.832Z,1.40
2023-02-19T14:28:21.546Z,1.30
2023-02-19T14:31:10.913Z,1.10
2023-02-19T14:33:43.500Z,1.05
2023-02-19T14:36:32.414Z,0.93
2023-02-19T14:39:17.473Z,0.95
2023-02-19T14:41:49.598Z,0.88
2023-02-19T14:44:25.141Z,1.10
2023-02-19T14:47:09.504Z,1.10
2023-02-19T14:49:55.640Z,1.02
2023-02-19T14:52:44.514Z,1.02
2023-02-19T14:55:32.534Z,0.80
2023-02-19T14:58:04.622Z,0.93
2023-02-19T15:00:38.345Z,1.23
2023-02-19T15:03:07.007Z,1.10
2023-02-19T15:05:37.857Z,1.48
2023-02-19T15:08:12.588Z,1.63
2023-02-19T15:10:43.449Z,1.52
2023-02-19T15:13:17.450Z,1.40
2023-02-19T15:15:45.856Z,1.45
2023-02-19T15:18:25.782Z,1.50
2023-02-19T15:21:01.505Z,1.20
2023-02-19T15:23:31.319Z,1.55
2023-02-19T15:26:00.368Z,1.30
2023-02-19T15:28:33.251Z,1.00
2023-02-19T15:31:00.849Z,1.08
2023-02-19T15:33:28.467Z,0.95
2023-02-19T15:36:02.735Z,1.10
2023-02-19T15:38:30.398Z,0.90
2023-02-19T15:40:58.674Z,1.10
2023-02-19T15:43:44.430Z,0.82
2023-02-19T15:46:20.882Z,0.85
2023-02-19T15:48:56.267Z,0.90
2023-02-19T15:51:34.748Z,0.98
2023-02-19T15:54:11.978Z,0.93
2023-02-19T15:56:45.379Z,1.15
2023-02-19T15:59:33.611Z,0.90
2023-02-19T16:02:01.984Z,0.98
2023-02-19T16:04:30.986Z,1.00
2023-02-19T16:06:59.746Z,1.30
2023-02-19T16:09:37.508Z,1.15
2023-02-19T16:12:21.216Z,0.93
2023-02-19T16:14:49.393Z,1.25
2023-02-19T16:17:23.292Z,1.60
2023-02-19T16:20:01.374Z,1.35
2023-02-19T16:22:33.430Z,1.73
2023-02-19T16:25:07.215Z,1.27
2023-02-19T16:27:41.400Z,1.35
2023-02-19T16:30:17.117Z,1.40
2023-02-19T16:32:47.106Z,1.50
2023-02-19T16:35:36.782Z,1.20
2023-02-19T16:38:13.926Z,1.48
2023-02-19T16:40:58.674Z,1.30
2023-02-19T16:43:29.227Z,1.40
2023-02-19T16:45:56.929Z,2.05
2023-02-19T16:48:25.697Z,1.40
2023-02-19T16:50:53.571Z,1.70
2023-02-19T16:53:25.253Z,1.50
2023-02-19T16:55:52.803Z,1.80
2023-02-19T16:58:21.364Z,1.55
2023-02-19T17:00:48.888Z,1.27
2023-02-19T17:03:19.589Z,1.55
2023-02-19T17:05:47.359Z,1.30
2023-02-19T17:08:41.162Z,1.52
2023-02-19T17:11:14.809Z,1.45
2023-02-19T17:13:45.839Z,1.90
2023-02-19T17:16:28.475Z,1.98
2023-02-19T17:18:56.263Z,1.20
2023-02-19T17:21:29.255Z,1.13
2023-02-19T17:23:57.158Z,1.10
2023-02-19T17:26:29.391Z,1.08
2023-02-19T17:29:01.046Z,1.00
2023-02-19T17:31:28.844Z,1.27
2023-02-19T17:33:56.449Z,1.63
2023-02-19T17:36:32.409Z,1.20
2023-02-19T17:41:28.487Z,1.30
2023-02-19T17:43:55.985Z,1.30
2023-02-19T17:46:26.049Z,1.58
2023-02-19T17:48:54.565Z,1.38
2023-02-19T17:51:22.540Z,1.17
2023-02-19T17:53:50.102Z,1.50
2023-02-19T17:56:20.640Z,1.40
2023-02-19T17:58:48.399Z,1.48
2023-02-19T18:01:16.063Z,1.20
2023-02-19T18:03:43.847Z,1.70
2023-02-19T18:06:11.431Z,1.83
2023-02-19T18:08:39.381Z,1.05
2023-02-19T18:11:07.289Z,1.23
2023-02-19T18:13:34.827Z,0.93
2023-02-19T18:16:02.335Z,0.90
2023-02-19T18:18:30.510Z,1.10
2023-02-19T18:20:58.166Z,1.02
2023-02-19T18:23:26.020Z,0.80
2023-02-19T18:25:53.452Z,1.05
2023-02-19T18:28:21.009Z,1.20
2023-02-19T18:30:48.712Z,0.90
2023-02-19T18:33:16.376Z,1.17
2023-02-19T18:35:43.907Z,1.30
2023-02-19T18:38:11.966Z,0.90
2023-02-19T18:40:39.519Z,1.40
2023-02-19T18:43:07.032Z,1.20
2023-02-19T18:45:37.208Z,1.20
2023-02-19T18:48:05.622Z,1.20
2023-02-19T18:50:34.891Z,1.15
2023-02-19T18:53:02.438Z,1.27
2023-02-19T18:55:29.898Z,1.05
2023-02-19T18:57:57.454Z,0.80
2023-02-19T19:00:26.652Z,0.70
2023-02-19T19:03:00.417Z,1.15
2023-02-19T19:05:28.325Z,0.93
2023-02-19T19:07:59.136Z,0.77
2023-02-19T19:10:28.364Z,0.60
2023-02-19T19:12:56.056Z,0.80
2023-02-19T19:15:23.645Z,0.90
2023-02-19T19:17:51.377Z,1.15
2023-02-19T19:20:20.707Z,0.80
2023-02-19T19:22:54.207Z,1.00
2023-02-19T19:25:23.112Z,0.70
2023-02-19T19:27:51.861Z,0.95
2023-02-19T19:30:20.580Z,0.60
2023-02-19T19:32:49.620Z,0.80
2023-02-19T19:35:18.634Z,0.85
2023-02-19T19:37:46.439Z,0.80
2023-02-19T19:40:15.385Z,0.57
2023-02-19T19:42:44.496Z,0.68
2023-02-19T19:45:13.842Z,0.88
2023-02-19T19:47:41.469Z,0.85
2023-02-19T19:50:09.638Z,0.70
2023-02-19T19:52:37.182Z,0.77
2023-02-19T19:55:05.456Z,1.00
2023-02-19T19:57:33.192Z,0.82
2023-02-19T20:00:01.706Z,0.80
2023-02-19T20:02:39.805Z,0.95
2023-02-19T20:05:07.489Z,1.10
2023-02-19T20:07:35.036Z,1.20
2023-02-19T20:10:02.559Z,1.30
2023-02-19T20:12:29.949Z,1.00
2023-02-19T20:14:57.574Z,1.20
2023-02-19T20:17:28.958Z,1.50
2023-02-19T20:19:56.442Z,1.02
2023-02-19T20:22:24.049Z,1.30
2023-02-19T20:24:52.665Z,1.05
2023-02-19T20:27:21.108Z,1.35
2023-02-19T20:29:49.073Z,1.27
2023-02-19T20:32:19.858Z,1.20
2023-02-19T20:34:48.714Z,0.93
2023-02-19T20:37:16.259Z,1.35
2023-02-19T20:39:43.872Z,1.15
2023-02-19T20:42:11.515Z,1.23
2023-02-19T20:44:38.930Z,1.00
2023-02-19T20:47:06.598Z,1.30
2023-02-19T20:49:34.527Z,0.98
2023-02-19T20:52:06.677Z,1.20
2023-02-19T20:54:35.621Z,1.30
2023-02-19T20:57:05.226Z,1.20
2023-02-19T20:59:35.548Z,1.00
2023-02-19T21:02:04.871Z,0.93
2023-02-19T21:04:33.032Z,1.10
2023-02-19T21:07:00.550Z,1.02
2023-02-19T21:09:28.487Z,1.08
2023-02-19T21:11:56.248Z,1.17
2023-02-19T21:14:23.675Z,1.20
2023-02-19T21:16:51.131Z,1.38
2023-02-19T21:19:18.603Z,1.02
2023-02-19T21:21:46.151Z,1.25
2023-02-19T21:24:15.177Z,0.93
2023-02-19T21:26:43.660Z,1.30
2023-02-19T21:29:16.277Z,1.48
2023-02-19T21:31:46.221Z,1.00
2023-02-19T21:34:16.343Z,1.30
2023-02-19T21:36:44.139Z,1.02
2023-02-19T21:39:14.118Z,1.13
2023-02-19T21:41:41.776Z,1.17
2023-02-19T21:44:09.481Z,1.58
2023-02-19T21:46:37.137Z,1.15
2023-02-19T21:49:05.172Z,1.52
2023-02-19T21:51:36.213Z,1.08
2023-02-19T21:54:05.176Z,0.90
2023-02-19T21:56:36.209Z,1.38
2023-02-19T21:59:04.656Z,1.30
2023-02-19T22:01:35.458Z,1.25
2023-02-19T22:04:02.957Z,1.30
2023-02-19T22:06:31.638Z,1.00
2023-02-19T22:09:00.219Z,1.40
2023-02-19T22:11:27.734Z,1.38
2023-02-19T22:13:55.270Z,1.30
2023-02-19T22:16:22.996Z,1.60
2023-02-19T22:18:52.971Z,1.30
2023-02-19T22:21:22.166Z,1.40
2023-02-19T22:23:51.819Z,1.20
2023-02-19T22:26:23.691Z,1.27
2023-02-19T22:28:51.618Z,0.90
2023-02-19T22:31:21.062Z,1.30
2023-02-19T22:33:48.700Z,1.27
2023-02-19T22:36:18.511Z,1.20
2023-02-19T22:38:46.273Z,1.00
2023-02-19T22:41:14.862Z,1.58
2023-02-19T22:43:42.712Z,1.02
2023-02-19T22:46:15.877Z,1.08
2023-02-19T22:48:43.531Z,1.13
2023-02-19T22:51:17.093Z,1.25
2023-02-19T22:53:55.503Z,1.20
2023-02-19T22:56:26.215Z,1.42
2023-02-19T22:58:55.124Z,1.00
2023-02-19T23:01:23.062Z,1.30
2023-02-19T23:03:56.515Z,1.00
2023-02-19T23:06:25.346Z,1.00
2023-02-19T23:08:54.137Z,1.10
2023-02-19T23:11:27.282Z,1.10
2023-02-19T23:13:54.916Z,1.27
2023-02-19T23:16:22.556Z,1.33
2023-02-19T23:18:50.209Z,1.65
2023-02-19T23:21:18.505Z,1.17
2023-02-19T23:23:46.583Z,1.02
2023-02-19T23:26:15.424Z,1.10
2023-02-19T23:28:44.198Z,1.42
2023-02-19T23:31:12.783Z,1.13
2023-02-19T23:33:40.680Z,1.00
2023-02-19T23:36:08.707Z,1.10
2023-02-19T23:38:36.441Z,1.20
2023-02-19T23:41:08.601Z,0.95
2023-02-19T23:43:36.288Z,1.35
2023-02-19T23:46:04.756Z,1.63
2023-02-19T23:48:32.686Z,0.93
2023-02-19T23:51:00.407Z,1.50
2023-02-19T23:53:27.933Z,1.60
2023-02-19T23:55:55.573Z,1.23
2023-02-19T23:58:23.114Z,2.05
